Time;durP1;ratioP1;P1;durP2;ratioP2;P2;SDS_P1;SDS_P2;PMS_P1;PMS_P2;Temp;Humidity;BMP_temperature;BMP_pressure;BME280_temperature;BME280_humidity;BME280_pressure;Samples;Min_cycle;Max_cycle;Signal;HPM_P1;HPM_P2
2023/10/08 00:01:21;;;;;;;0.10;0.10;;;;;;;6.65;56.30;99381.05;109867;1279;22147;-68
2023/10/08 00:03:50;;;;;;;0.10;0.10;;;;;;;6.64;56.18;99385.27;109826;1279;98962;-68
2023/10/08 00:06:21;;;;;;;0.10;0.10;;;;;;;6.59;56.25;99386.30;109897;1280;22193;-68
2023/10/08 00:08:51;;;;;;;0.50;0.20;;;;;;;6.55;56.00;99382.67;109783;1273;99147;-68
2023/10/08 00:11:22;;;;;;;0.10;0.10;;;;;;;6.49;56.13;99386.48;109889;1279;22158;-68
2023/10/08 00:13:56;;;;;;;0.30;0.20;;;;;;;6.44;56.17;99385.47;109889;1279;23645;-68
2023/10/08 00:16:28;;;;;;;0.30;0.10;;;;;;;6.37;56.47;99385.88;109803;1280;99507;-67
2023/10/08 00:19:07;;;;;;;0.30;0.10;;;;;;;6.33;56.27;99385.17;109912;1280;22332;-67
2023/10/08 00:21:37;;;;;;;0.40;0.20;;;;;;;6.27;56.30;99384.84;109795;1280;99128;-68
2023/10/08 00:24:06;;;;;;;1.00;0.30;;;;;;;6.20;56.54;99388.71;109879;1279;22149;-68
2023/10/08 00:26:39;;;;;;;0.70;0.20;;;;;;;6.14;56.39;99392.76;109825;1279;99078;-68
2023/10/08 00:29:15;;;;;;;0.80;0.10;;;;;;;6.08;56.64;99392.60;109835;1279;23174;-67
2023/10/08 00:31:45;;;;;;;0.20;0.10;;;;;;;6.01;56.76;99393.84;109876;1280;22037;-68
2023/10/08 00:34:14;;;;;;;0.10;0.10;;;;;;;5.95;56.58;99392.49;109784;1280;99053;-68
2023/10/08 00:36:45;;;;;;;0.10;0.00;;;;;;;5.90;56.61;99397.50;109875;1279;22161;-68
2023/10/08 00:39:22;;;;;;;0.10;0.10;;;;;;;5.84;56.66;99404.23;109830;1280;99397;-68
2023/10/08 00:41:58;;;;;;;0.30;0.20;;;;;;;5.79;56.71;99403.91;109849;1280;22501;-68
2023/10/08 00:44:35;;;;;;;0.20;0.20;;;;;;;5.74;56.60;99410.27;109819;1279;99599;-68
2023/10/08 00:47:06;;;;;;;0.20;0.10;;;;;;;5.70;56.56;99418.71;109877;1279;22306;-67
2023/10/08 00:57:29;;;;;;;0.10;0.10;;;;;;;5.58;56.40;99437.53;109835;1279;99456;-68
2023/10/08 00:59:59;;;;;;;0.50;0.20;;;;;;;5.54;56.43;99438.35;109869;1279;22336;-68
2023/10/08 01:02:45;;;;;;;1.00;0.20;;;;;;;5.50;56.56;99438.48;109819;1279;99611;-68
2023/10/08 01:05:24;;;;;;;0.20;0.20;;;;;;;5.48;56.47;99442.36;109914;1280;22147;-68
2023/10/08 01:07:55;;;;;;;1.30;0.20;;;;;;;5.45;56.35;99443.30;109897;1279;22305;-68
2023/10/08 01:10:24;;;;;;;0.60;0.10;;;;;;;5.42;56.50;99449.29;109756;1280;99717;-67
2023/10/08 01:18:54;;;;;;;0.50;0.10;;;;;;;5.26;56.51;99454.06;109856;1283;22305;-68
2023/10/08 01:21:33;;;;;;;0.20;0.10;;;;;;;5.23;56.67;99450.20;109791;1280;99050;-67
2023/10/08 01:24:06;;;;;;;3.20;0.30;;;;;;;5.20;56.57;99452.55;109883;1276;26337;-67
2023/10/08 01:26:38;;;;;;;0.80;0.30;;;;;;;5.17;56.51;99457.26;109866;1279;99656;-67
2023/10/08 01:29:21;;;;;;;0.10;0.10;;;;;;;5.14;56.57;99462.86;109918;1279;22286;-67
2023/10/08 01:31:53;;;;;;;0.40;0.10;;;;;;;5.12;56.60;99464.98;109891;1278;22326;-68
2023/10/08 01:34:27;;;;;;;0.80;0.20;;;;;;;5.10;56.65;99470.92;109837;1279;98901;-68
2023/10/08 01:36:55;;;;;;;1.20;0.20;;;;;;;5.09;56.43;99479.08;109871;1279;22298;-68
2023/10/08 01:39:26;;;;;;;0.50;0.30;;;;;;;5.06;56.44;99485.53;109818;1280;100205;-68
2023/10/08 01:41:54;;;;;;;0.60;0.40;;;;;;;5.03;56.64;99486.65;109849;1279;22961;-67
2023/10/08 01:44:24;;;;;;;0.20;0.10;;;;;;;5.01;56.62;99486.52;109894;1280;23078;-68
2023/10/08 01:46:52;;;;;;;0.70;0.20;;;;;;;5.00;56.69;99493.98;109874;1280;22332;-67
2023/10/08 01:49:22;;;;;;;0.20;0.10;;;;;;;4.99;56.66;99494.54;109890;1279;22295;-68
2023/10/08 01:51:50;;;;;;;0.20;0.20;;;;;;;4.97;56.65;99497.02;109834;1280;99664;-67
2023/10/08 01:54:21;;;;;;;0.70;0.20;;;;;;;4.94;56.56;99501.38;109933;1279;22168;-67
2023/10/08 01:56:50;;;;;;;0.90;0.10;;;;;;;4.94;56.59;99504.34;109833;1279;99251;-68
2023/10/08 01:59:18;;;;;;;0.10;0.10;;;;;;;4.92;56.60;99506.11;109857;1280;22308;-68
2023/10/08 02:01:47;;;;;;;0.30;0.20;;;;;;;4.91;56.67;99505.45;109876;1279;22152;-68
2023/10/08 02:04:17;;;;;;;0.00;0.00;;;;;;;4.89;56.82;99511.35;109807;1280;99178;-68
2023/10/08 02:06:46;;;;;;;0.70;0.20;;;;;;;4.88;56.69;99510.53;109863;1281;22244;-67
2023/10/08 02:09:15;;;;;;;0.20;0.20;;;;;;;4.87;56.65;99509.70;109839;1279;99502;-68
2023/10/08 02:11:53;;;;;;;0.70;0.10;;;;;;;4.87;56.73;99514.19;109865;1280;22183;-67
2023/10/08 02:14:22;;;;;;;0.20;0.10;;;;;;;4.86;56.66;99514.92;109882;1280;22618;-67
2023/10/08 02:16:56;;;;;;;0.20;0.20;;;;;;;4.85;56.68;99522.52;109811;1279;22366;-68
2023/10/08 02:19:28;;;;;;;0.10;0.10;;;;;;;4.85;56.77;99521.66;109926;1280;22321;-68
2023/10/08 02:21:57;;;;;;;0.40;0.20;;;;;;;4.84;56.69;99523.75;109712;1279;99019;-67
2023/10/08 02:24:26;;;;;;;0.30;0.10;;;;;;;4.85;56.62;99528.05;109838;1280;22358;-67
2023/10/08 02:26:56;;;;;;;0.60;0.20;;;;;;;4.84;56.78;99534.61;109781;1279;99147;-67
2023/10/08 02:29:27;;;;;;;0.20;0.20;;;;;;;4.87;56.89;99538.33;109812;1279;22345;-67
2023/10/08 02:31:57;;;;;;;1.80;0.30;;;;;;;4.89;56.73;99527.23;109881;1279;22242;-67
2023/10/08 02:34:26;;;;;;;0.20;0.20;;;;;;;4.89;56.78;99530.15;109814;1280;99187;-67
2023/10/08 02:36:55;;;;;;;0.50;0.20;;;;;;;4.89;56.73;99532.77;109885;1280;22338;-67
2023/10/08 02:39:26;;;;;;;0.40;0.10;;;;;;;4.87;56.89;99538.15;109828;1279;98962;-67
2023/10/08 02:41:58;;;;;;;0.50;0.10;;;;;;;4.86;56.81;99545.26;109934;1279;23148;-68
2023/10/08 02:44:27;;;;;;;1.10;0.10;;;;;;;4.85;56.91;99550.45;109905;1280;22157;-67
2023/10/08 02:46:56;;;;;;;0.20;0.20;;;;;;;4.83;56.86;99546.02;109912;1273;22160;-68
2023/10/08 02:49:24;;;;;;;0.70;0.20;;;;;;;4.80;56.88;99547.15;109875;1286;22276;-67
2023/10/08 02:51:54;;;;;;;0.90;0.10;;;;;;;4.78;56.98;99547.20;109833;1280;99711;-67
2023/10/08 02:54:31;;;;;;;0.10;0.10;;;;;;;4.77;57.07;99554.65;109917;1280;22145;-67
2023/10/08 02:57:03;;;;;;;0.90;0.30;;;;;;;4.76;57.18;99554.67;109792;1279;100490;-68
2023/10/08 02:59:40;;;;;;;0.20;0.10;;;;;;;4.74;57.08;99563.86;109919;1280;23242;-68
2023/10/08 03:02:21;;;;;;;0.00;0.00;;;;;;;4.72;57.24;99568.04;109892;1280;22315;-67
2023/10/08 03:04:52;;;;;;;0.30;0.10;;;;;;;4.70;57.07;99572.74;109813;1279;98889;-68
2023/10/08 03:07:21;;;;;;;0.20;0.10;;;;;;;4.69;57.14;99572.95;109909;1279;22064;-68
2023/10/08 03:10:03;;;;;;;0.90;0.30;;;;;;;4.67;57.28;99571.25;109796;1280;99727;-67
2023/10/08 03:12:33;;;;;;;0.30;0.00;;;;;;;4.64;57.27;99566.34;109861;1280;22162;-67
2023/10/08 03:17:52;;;;;;;0.80;0.30;;;;;;;4.63;57.42;99569.30;109608;1280;22302;-67
2023/10/08 03:20:37;;;;;;;0.40;0.20;;;;;;;4.63;57.29;99575.33;109846;1280;23265;-68
2023/10/08 03:23:57;;;;;;;0.20;0.10;;;;;;;4.63;57.34;99573.26;109870;1280;22162;-67
2023/10/08 03:26:45;;;;;;;0.70;0.30;;;;;;;4.62;57.53;99580.19;109847;1279;22263;-67
2023/10/08 03:28:46;;;;;;;0.50;0.20;;;;;;;4.59;57.50;99578.88;109737;1280;97971;-68
2023/10/08 03:31:19;;;;;;;0.10;0.10;;;;;;;4.57;57.54;99582.39;109907;1280;22279;-68
2023/10/08 03:33:51;;;;;;;0.20;0.00;;;;;;;4.55;57.68;99584.14;109842;1280;101173;-68
2023/10/08 03:38:52;;;;;;;0.40;0.10;;;;;;;4.53;57.70;99592.30;109857;1278;101294;-68
2023/10/08 03:41:28;;;;;;;0.20;0.10;;;;;;;4.53;57.91;99594.37;109917;1280;22338;-67
2023/10/08 03:44:12;;;;;;;1.30;0.20;;;;;;;4.50;57.81;99597.73;109925;1280;22298;-68
2023/10/08 03:46:42;;;;;;;0.20;0.10;;;;;;;4.48;57.86;99598.98;109803;1286;99489;-68
2023/10/08 03:49:36;;;;;;;0.10;0.10;;;;;;;4.46;57.96;99601.79;109913;1286;23177;-67
2023/10/08 03:52:01;;;;;;;0.10;0.10;;;;;;;4.44;57.80;99600.29;109843;1280;98963;-67
2023/10/08 03:54:30;;;;;;;0.50;0.30;;;;;;;4.42;57.73;99602.75;109912;1280;22177;-67
2023/10/08 03:56:58;;;;;;;0.40;0.10;;;;;;;4.41;57.86;99603.45;109808;1280;102469;-67
2023/10/08 04:02:22;;;;;;;2.10;0.10;;;;;;;4.42;57.97;99603.27;109882;1280;22162;-67
2023/10/08 04:04:51;;;;;;;0.80;0.20;;;;;;;4.40;58.03;99608.83;109867;1281;99467;-67
2023/10/08 04:07:24;;;;;;;2.20;0.10;;;;;;;4.37;58.08;99614.07;109900;1280;22074;-67
2023/10/08 04:10:16;;;;;;;0.20;0.20;;;;;;;4.36;58.05;99615.48;109835;1279;97941;-67
2023/10/08 04:12:48;;;;;;;0.10;0.10;;;;;;;4.33;58.16;99613.13;109898;1275;22183;-67
2023/10/08 04:15:18;;;;;;;0.60;0.30;;;;;;;4.31;58.19;99619.02;109798;1279;99428;-68
2023/10/08 04:17:50;;;;;;;0.70;0.30;;;;;;;4.30;58.21;99622.16;109907;1280;22285;-67
2023/10/08 04:20:38;;;;;;;1.10;0.30;;;;;;;4.29;58.25;99630.13;109872;1279;22292;-67
2023/10/08 04:23:20;;;;;;;0.00;0.00;;;;;;;4.28;58.21;99623.26;109885;1279;22258;-67
2023/10/08 04:25:54;;;;;;;0.20;0.20;;;;;;;4.25;58.35;99630.17;109871;1283;22422;-67
2023/10/08 04:28:28;;;;;;;0.10;0.10;;;;;;;4.25;58.18;99629.33;109818;1272;98828;-67
2023/10/08 04:31:02;;;;;;;0.20;0.10;;;;;;;4.24;58.27;99628.13;109876;1279;23155;-67
2023/10/08 04:33:33;;;;;;;0.10;0.10;;;;;;;4.24;58.33;99635.39;109835;1279;98858;-67
2023/10/08 04:36:04;;;;;;;0.60;0.40;;;;;;;4.23;58.36;99644.03;109933;1283;22319;-67
2023/10/08 04:38:39;;;;;;;0.80;0.10;;;;;;;4.23;58.33;99644.38;109917;1279;23399;-67
2023/10/08 04:41:11;;;;;;;0.20;0.10;;;;;;;4.22;58.32;99648.02;109901;1280;23056;-68
2023/10/08 04:43:42;;;;;;;1.30;0.20;;;;;;;4.20;58.46;99645.30;109834;1283;22319;-67
2023/10/08 04:49:19;;;;;;;0.50;0.10;;;;;;;4.18;58.61;99643.64;109760;1280;22172;-67
2023/10/08 04:51:48;;;;;;;1.80;0.10;;;;;;;4.17;58.57;99647.62;109772;1277;99740;-67
2023/10/08 04:54:18;;;;;;;1.30;0.20;;;;;;;4.16;58.70;99651.77;109879;1279;22424;-67
2023/10/08 04:56:49;;;;;;;0.30;0.20;;;;;;;4.16;58.66;99653.66;109793;1279;102904;-69
2023/10/08 04:59:22;;;;;;;3.20;1.60;;;;;;;4.17;58.71;99659.68;109711;1280;22294;-68
2023/10/08 05:12:47;;;;;;;47.30;20.30;;;;;;;4.16;59.12;99683.64;109858;1280;22320;-69
2023/10/08 05:28:47;;;;;;;25.70;12.30;;;;;;;4.49;59.28;99694.61;109755;1279;99752;-59
2023/10/08 05:42:05;;;;;;;1.50;0.80;;;;;;;5.06;59.74;99706.89;109836;1279;22748;-59
2023/10/08 05:44:39;;;;;;;0.60;0.30;;;;;;;5.19;59.68;99706.91;109833;1281;23172;-59
2023/10/08 05:52:53;;;;;;;0.40;0.20;;;;;;;5.61;59.92;99722.20;109814;1279;84376;-62
2023/10/08 05:55:27;;;;;;;0.40;0.20;;;;;;;5.77;59.97;99728.16;109894;1280;23182;-61
2023/10/08 05:59:00;;;;;;;0.40;0.20;;;;;;;5.92;59.95;99729.83;109813;1280;99676;-61
2023/10/08 06:01:07;;;;;;;0.10;0.10;;;;;;;6.12;59.98;99726.70;109816;1283;22207;-61
2023/10/08 06:03:47;;;;;;;1.60;0.10;;;;;;;6.26;59.76;99734.58;109845;1279;98733;-65
2023/10/08 06:08:52;;;;;;;0.40;0.20;;;;;;;6.56;59.87;99749.25;109800;1279;101140;-65
2023/10/08 06:14:28;;;;;;;0.80;0.30;;;;;;;6.88;59.77;99754.64;109684;1280;252356;-64
2023/10/08 06:19:49;;;;;;;0.20;0.10;;;;;;;7.20;59.70;99757.09;109587;1280;22139;-63
2023/10/08 06:22:19;;;;;;;1.10;0.70;;;;;;;7.33;59.74;99764.61;109330;1281;100055;-63
2023/10/08 06:24:47;;;;;;;0.20;0.20;;;;;;;7.52;59.80;99765.90;109503;1280;22367;-63
2023/10/08 06:27:17;;;;;;;2.50;0.70;;;;;;;7.69;59.73;99766.69;109407;1280;100310;-64
2023/10/08 06:29:45;;;;;;;0.50;0.40;;;;;;;7.79;59.50;99774.65;109880;1280;22246;-63
2023/10/08 06:32:14;;;;;;;0.50;0.20;;;;;;;7.93;59.46;99784.22;109893;1283;22841;-65
2023/10/08 06:34:43;;;;;;;0.60;0.30;;;;;;;8.12;59.66;99786.15;109557;1280;99523;-64
2023/10/08 06:37:15;;;;;;;2.90;0.50;;;;;;;8.25;59.46;99787.89;109379;1281;23771;-64
2023/10/08 06:39:49;;;;;;;0.60;0.50;;;;;;;8.40;59.46;99785.83;109269;1280;100716;-64
2023/10/08 06:42:18;;;;;;;1.40;0.80;;;;;;;8.59;59.35;99789.30;109490;1280;22299;-64
2023/10/08 06:44:48;;;;;;;0.30;0.30;;;;;;;8.76;59.30;99796.09;109822;1283;98920;-64
2023/10/08 06:47:18;;;;;;;0.80;0.60;;;;;;;8.97;59.19;99797.21;109910;1280;22223;-65
2023/10/08 06:49:47;;;;;;;0.40;0.30;;;;;;;9.12;59.12;99796.92;109886;1280;22747;-65
2023/10/08 06:52:18;;;;;;;1.40;0.20;;;;;;;9.20;58.92;99803.75;109772;1280;99085;-65
2023/10/08 06:54:47;;;;;;;1.10;0.50;;;;;;;9.30;58.97;99806.29;109817;1281;22111;-64
2023/10/08 06:57:20;;;;;;;1.30;0.30;;;;;;;9.44;58.88;99813.02;109772;1279;99332;-64
2023/10/08 06:59:50;;;;;;;0.60;0.20;;;;;;;9.56;58.51;99817.03;109874;1280;22402;-64
2023/10/08 07:02:19;;;;;;;0.50;0.40;;;;;;;9.59;58.40;99821.09;109902;1283;22120;-64
2023/10/08 07:04:47;;;;;;;0.60;0.20;;;;;;;9.71;58.15;99828.26;109842;1280;99081;-64
2023/10/08 07:07:18;;;;;;;0.80;0.50;;;;;;;9.86;58.24;99823.25;109908;1280;22051;-64
2023/10/08 07:09:48;;;;;;;0.30;0.20;;;;;;;9.96;57.92;99829.07;109782;1280;99833;-64
2023/10/08 07:12:24;;;;;;;0.30;0.10;;;;;;;10.01;57.78;99835.62;109856;1283;22297;-64
2023/10/08 07:14:54;;;;;;;0.40;0.20;;;;;;;10.07;57.52;99837.79;109757;1279;99244;-67
2023/10/08 07:17:27;;;;;;;1.40;0.20;;;;;;;10.14;57.36;99840.66;109880;1280;22145;-66
2023/10/08 07:19:57;;;;;;;5.30;3.60;;;;;;;10.18;57.29;99842.57;109902;1280;23191;-73
2023/10/08 07:22:28;;;;;;;1.80;1.30;;;;;;;10.26;57.19;99841.52;109792;1279;100072;-66
2023/10/08 07:24:57;;;;;;;10.90;6.10;;;;;;;10.37;56.93;99848.71;109726;1284;22350;-64
2023/10/08 07:27:31;;;;;;;3.90;2.10;;;;;;;10.48;56.63;99861.30;109736;1280;101459;-64
2023/10/08 07:30:10;;;;;;;0.90;0.60;;;;;;;10.64;56.59;99859.38;109833;1280;22329;-68
2023/10/08 07:32:39;;;;;;;0.50;0.30;;;;;;;10.72;56.13;99861.05;109762;1280;22276;-64
2023/10/08 07:37:49;;;;;;;0.90;0.50;;;;;;;11.11;55.97;99863.61;109827;1280;22839;-65
2023/10/08 07:40:20;;;;;;;0.30;0.20;;;;;;;11.43;55.82;99870.98;109757;1276;99808;-64
2023/10/08 07:42:51;;;;;;;0.20;0.20;;;;;;;11.85;55.71;99871.92;109835;1280;22380;-63
2023/10/08 07:45:21;;;;;;;0.70;0.20;;;;;;;11.93;55.02;99874.31;109728;1280;99449;-67
2023/10/08 07:47:50;;;;;;;0.90;0.20;;;;;;;11.99;54.85;99879.42;109854;1279;23050;-63
2023/10/08 07:50:20;;;;;;;1.10;0.50;;;;;;;12.14;54.73;99877.09;109855;1276;22176;-63
2023/10/08 07:52:56;;;;;;;1.10;0.70;;;;;;;12.38;54.47;99883.20;109697;1280;99133;-66
2023/10/08 07:55:28;;;;;;;0.70;0.20;;;;;;;12.50;53.92;99879.39;109802;1283;22302;-64
2023/10/08 07:57:59;;;;;;;0.80;0.20;;;;;;;12.63;53.75;99880.48;109679;1280;99678;-65
2023/10/08 08:00:38;;;;;;;0.30;0.10;;;;;;;12.98;53.63;99882.42;109653;1283;22304;-65
2023/10/08 08:03:08;;;;;;;0.20;0.20;;;;;;;13.94;54.38;99881.38;109689;1283;99280;-65
2023/10/08 08:05:40;;;;;;;0.50;0.20;;;;;;;15.75;54.90;99884.83;109732;1280;22307;-65
2023/10/08 08:08:09;;;;;;;0.40;0.20;;;;;;;17.36;54.35;99881.85;109689;1280;22695;-59
2023/10/08 08:10:39;;;;;;;0.30;0.10;;;;;;;18.80;54.15;99886.81;109682;1285;99739;-66
2023/10/08 08:13:20;;;;;;;0.50;0.20;;;;;;;20.14;53.66;99885.31;109664;1281;23106;-67
2023/10/08 08:15:51;;;;;;;0.30;0.10;;;;;;;20.89;52.44;99891.95;109546;1280;99229;-67
2023/10/08 08:18:24;;;;;;;0.60;0.10;;;;;;;20.99;51.12;99888.58;109712;1280;22258;-67
2023/10/08 08:20:54;;;;;;;0.20;0.20;;;;;;;20.49;49.89;99899.40;109690;1280;99692;-63
2023/10/08 08:23:23;;;;;;;0.60;0.20;;;;;;;20.29;49.90;99904.27;109755;1280;22913;-65
2023/10/08 08:26:13;;;;;;;;;;;;;;;20.89;49.88;99907.48;109799;1279;22930;-65
2023/10/08 08:28:44;;;;;;;0.10;0.10;;;;;;;22.28;50.08;99902.07;109657;1280;85427;-65
2023/10/08 08:31:15;;;;;;;0.60;0.10;;;;;;;23.69;49.47;99901.63;109553;1286;22221;-65
2023/10/08 08:33:56;;;;;;;0.10;0.10;;;;;;;25.05;48.24;99908.27;109612;1285;99219;-63
2023/10/08 08:36:28;;;;;;;0.10;0.10;;;;;;;26.24;46.88;99910.39;109643;1283;22291;-64
2023/10/08 08:38:57;;;;;;;1.90;0.20;;;;;;;26.72;45.98;99906.08;109531;1284;99337;-66
2023/10/08 08:41:29;;;;;;;0.50;0.10;;;;;;;27.17;44.63;99912.13;109801;1281;22850;-67
2023/10/08 08:43:58;;;;;;;0.20;0.10;;;;;;;28.11;44.21;99910.49;109843;1284;22090;-65
2023/10/08 08:46:47;;;;;;;2.30;0.20;;;;;;;28.62;42.31;99921.67;109730;1279;99306;-64
2023/10/08 08:49:18;;;;;;;2.80;0.30;;;;;;;28.38;41.91;99924.35;109800;1280;22357;-65
2023/10/08 08:51:52;;;;;;;0.30;0.10;;;;;;;27.94;39.75;99921.63;109702;1279;100343;-66
2023/10/08 08:54:21;;;;;;;0.60;0.20;;;;;;;27.64;39.27;99922.96;109830;1279;22225;-65
2023/10/08 08:56:52;;;;;;;0.50;0.30;;;;;;;27.43;38.04;99924.47;109705;1280;100088;-67
2023/10/08 08:59:21;;;;;;;0.50;0.20;;;;;;;27.47;37.49;99923.52;109826;1283;22316;-65
2023/10/08 09:01:51;;;;;;;1.00;0.20;;;;;;;28.12;37.45;99925.95;109797;1280;22450;-66
2023/10/08 09:04:32;;;;;;;0.70;0.30;;;;;;;29.13;36.44;99919.02;109743;1279;99149;-66
2023/10/08 09:07:08;;;;;;;0.40;0.10;;;;;;;29.52;34.64;99921.15;109769;1280;22154;-64
2023/10/08 09:09:39;;;;;;;0.30;0.10;;;;;;;29.99;34.58;99920.50;109708;1282;99759;-68
2023/10/08 09:12:10;;;;;;;0.40;0.00;;;;;;;30.69;33.65;99927.81;109806;1283;23147;-67
2023/10/08 09:14:44;;;;;;;0.40;0.20;;;;;;;31.26;32.83;99930.13;109629;1286;99959;-68
2023/10/08 09:17:23;;;;;;;0.30;0.10;;;;;;;30.43;31.68;99937.80;109751;1280;22314;-69
2023/10/08 09:19:53;;;;;;;1.00;0.10;;;;;;;30.65;30.95;99928.77;109751;1284;22286;-66
2023/10/08 09:22:23;;;;;;;0.40;0.10;;;;;;;31.44;30.88;99933.13;109673;1283;99278;-67
2023/10/08 09:24:59;;;;;;;0.60;0.30;;;;;;;32.68;29.96;99937.56;109774;1279;22161;-58
2023/10/08 09:27:37;;;;;;;0.30;0.10;;;;;;;33.69;29.66;99943.87;109699;1279;100134;-67
2023/10/08 09:30:08;;;;;;;0.70;0.30;;;;;;;33.83;29.11;99944.06;109825;1283;22281;-60
2023/10/08 09:32:39;;;;;;;1.60;0.60;;;;;;;34.33;29.18;99947.55;109713;1281;22148;-62
2023/10/08 09:35:13;;;;;;;0.70;0.10;;;;;;;34.58;28.05;99949.23;109733;1280;23001;-59
2023/10/08 09:37:44;;;;;;;1.10;0.30;;;;;;;34.77;27.32;99956.70;109646;1269;22446;-68
2023/10/08 09:40:20;;;;;;;0.60;0.30;;;;;;;34.06;26.35;99960.21;109703;1282;99787;-60
2023/10/08 09:42:50;;;;;;;0.30;0.10;;;;;;;33.68;25.93;99964.96;109813;1280;22788;-66
2023/10/08 09:45:20;;;;;;;0.30;0.20;;;;;;;33.65;25.68;99964.45;109729;1282;99976;-67
2023/10/08 09:47:55;;;;;;;0.30;0.10;;;;;;;33.98;24.72;99970.11;109704;1283;22147;-67
2023/10/08 09:50:30;;;;;;;0.90;0.30;;;;;;;34.63;24.63;99968.16;109678;1285;22768;-66
2023/10/08 09:53:10;;;;;;;0.90;0.20;;;;;;;35.23;23.79;99966.19;109714;1279;99848;-79
2023/10/08 09:55:57;;;;;;;0.50;0.40;;;;;;;34.77;23.15;99973.70;109827;1279;22954;-62
2023/10/08 09:58:28;;;;;;;0.50;0.40;;;;;;;33.55;22.14;99981.91;109676;1279;100145;-61
2023/10/08 10:00:59;;;;;;;0.40;0.30;;;;;;;32.54;22.33;99987.70;109841;1280;22309;-63
2023/10/08 10:03:34;;;;;;;1.10;0.20;;;;;;;32.35;22.03;99997.04;109755;1280;99991;-76
2023/10/08 10:06:14;;;;;;;0.40;0.20;;;;;;;32.94;21.80;100001.95;109717;1280;22440;-70
2023/10/08 10:08:45;;;;;;;0.20;0.10;;;;;;;33.42;21.39;100003.19;109728;1279;100175;-65
2023/10/08 10:11:17;;;;;;;1.40;0.20;;;;;;;34.18;21.13;100002.11;109834;1280;22783;-64
2023/10/08 10:13:59;;;;;;;0.80;0.30;;;;;;;34.80;20.87;100001.26;109773;1280;22360;-63
2023/10/08 10:16:29;;;;;;;0.40;0.20;;;;;;;35.18;20.45;99998.62;109690;1280;99469;-66
2023/10/08 10:19:00;;;;;;;0.30;0.10;;;;;;;35.37;20.37;100004.86;109821;1280;22939;-59
2023/10/08 10:21:33;;;;;;;0.40;0.30;;;;;;;35.53;19.82;100008.96;109762;1279;99593;-59
2023/10/08 10:24:23;;;;;;;0.30;0.10;;;;;;;35.82;19.78;100011.28;109871;1280;22259;-57
2023/10/08 10:27:10;;;;;;;0.10;0.10;;;;;;;36.47;19.46;100017.42;109771;1280;100458;-60
2023/10/08 10:29:43;;;;;;;0.10;0.10;;;;;;;36.31;18.94;100018.55;109783;1287;22684;-59
2023/10/08 10:32:17;;;;;;;0.10;0.10;;;;;;;36.39;18.84;100022.74;109779;1286;22344;-60
2023/10/08 10:34:47;;;;;;;0.40;0.20;;;;;;;36.89;18.89;100023.86;109698;1283;100103;-60
2023/10/08 10:37:22;;;;;;;0.30;0.10;;;;;;;37.90;18.89;100018.73;109835;1287;22318;-63
2023/10/08 10:39:59;;;;;;;0.40;0.20;;;;;;;38.04;18.42;100028.32;109739;1279;102059;-62
2023/10/08 10:42:42;;;;;;;2.20;0.30;;;;;;;38.20;18.47;100032.48;109810;1279;22137;-62
2023/10/08 10:45:35;;;;;;;0.50;0.20;;;;;;;38.65;18.31;100035.02;109721;1281;100213;-62
2023/10/08 10:53:44;;;;;;;0.20;0.20;;;;;;;40.12;17.61;100028.49;109850;1280;22314;-64
2023/10/08 10:56:24;;;;;;;0.20;0.20;;;;;;;39.93;17.39;100027.05;109872;1280;22974;-60
2023/10/08 10:59:05;;;;;;;0.40;0.20;;;;;;;40.21;16.99;100030.95;109764;1280;99213;-60
2023/10/08 11:01:48;;;;;;;1.20;0.60;;;;;;;39.87;16.87;100036.00;109817;1273;22182;-57
2023/10/08 11:04:21;;;;;;;2.20;0.40;;;;;;;39.90;16.90;100043.92;109744;1285;99992;-69
2023/10/08 11:06:56;;;;;;;0.70;0.50;;;;;;;40.56;16.77;100045.61;109812;1279;22124;-59
2023/10/08 11:09:38;;;;;;;0.30;0.30;;;;;;;40.20;16.36;100044.30;109764;1279;101210;-62
2023/10/08 11:12:11;;;;;;;0.30;0.30;;;;;;;40.07;16.38;100045.72;109861;1280;22918;-61
2023/10/08 11:14:46;;;;;;;0.40;0.30;;;;;;;39.35;15.81;100053.86;109749;1280;99494;-56
2023/10/08 11:17:24;;;;;;;0.40;0.30;;;;;;;37.87;15.63;100052.58;109845;1280;22758;-59
2023/10/08 11:19:53;;;;;;;0.40;0.10;;;;;;;35.17;15.34;100053.80;109796;1280;22305;-63
2023/10/08 11:22:44;;;;;;;0.30;0.20;;;;;;;34.85;15.72;100051.67;109649;1282;99589;-61
2023/10/08 11:25:30;;;;;;;0.40;0.30;;;;;;;35.97;15.75;100056.36;109727;1283;22499;-60
2023/10/08 11:28:02;;;;;;;0.30;0.10;;;;;;;37.23;15.76;100054.96;109758;1280;99573;-60
2023/10/08 11:30:35;;;;;;;0.30;0.20;;;;;;;37.79;15.65;100054.00;109779;1279;22303;-61
2023/10/08 11:33:06;;;;;;;0.60;0.20;;;;;;;37.39;15.48;100054.49;109727;1280;99568;-60
2023/10/08 11:35:50;;;;;;;0.30;0.10;;;;;;;37.05;15.57;100064.80;109761;1282;22180;-61
2023/10/08 11:38:22;;;;;;;0.60;0.20;;;;;;;36.81;15.15;100061.35;109583;1284;22074;-61
2023/10/08 11:40:56;;;;;;;1.00;0.20;;;;;;;36.12;15.22;100061.22;109785;1279;99423;-59
2023/10/08 11:43:27;;;;;;;0.70;0.20;;;;;;;35.55;15.01;100062.73;109854;1280;22218;-60
2023/10/08 11:46:03;;;;;;;0.40;0.20;;;;;;;35.86;15.45;100065.44;109774;1280;101235;-60
2023/10/08 11:48:38;;;;;;;0.30;0.20;;;;;;;36.79;15.86;100067.63;109821;1280;22290;-60
2023/10/08 11:51:12;;;;;;;0.90;0.10;;;;;;;36.90;15.21;100064.69;109800;1279;99479;-60
2023/10/08 11:53:47;;;;;;;0.60;0.40;;;;;;;36.41;15.23;100068.80;109855;1279;22271;-60
2023/10/08 11:56:22;;;;;;;0.60;0.30;;;;;;;36.11;15.34;100060.55;109846;1273;22181;-60
2023/10/08 11:58:52;;;;;;;0.70;0.20;;;;;;;35.41;15.10;100070.17;109738;1280;99391;-60
2023/10/08 12:01:21;;;;;;;0.20;0.10;;;;;;;33.22;15.12;100077.25;109843;1280;22357;-60
2023/10/08 12:04:01;;;;;;;0.20;0.10;;;;;;;32.37;15.17;100080.67;109595;1280;99577;-60
2023/10/08 12:06:33;;;;;;;0.80;0.10;;;;;;;32.47;15.30;100079.42;109868;1280;23252;-60
2023/10/08 12:09:11;;;;;;;0.30;0.10;;;;;;;32.53;15.49;100083.23;109621;1281;99603;-61
2023/10/08 12:11:44;;;;;;;0.10;0.10;;;;;;;31.89;15.38;100087.38;109793;1283;23082;-61
2023/10/08 12:14:15;;;;;;;0.10;0.10;;;;;;;29.59;15.25;100094.93;109874;1279;22150;-61
2023/10/08 12:16:51;;;;;;;0.50;0.10;;;;;;;27.08;15.41;100104.27;109755;1280;99289;-61
2023/10/08 12:19:27;;;;;;;0.40;0.20;;;;;;;25.29;15.56;100114.89;109867;1279;22164;-62
2023/10/08 12:22:02;;;;;;;1.10;0.20;;;;;;;25.01;15.83;100114.43;109631;1282;99588;-62
2023/10/08 12:24:35;;;;;;;0.40;0.20;;;;;;;25.44;16.05;100115.08;109800;1280;22509;-61
2023/10/08 12:27:11;;;;;;;0.40;0.10;;;;;;;25.54;15.98;100113.84;109825;1279;99552;-62
2023/10/08 12:29:52;;;;;;;0.60;0.30;;;;;;;25.31;16.40;100105.83;109845;1279;22130;-61
2023/10/08 12:32:27;;;;;;;0.00;0.00;;;;;;;24.35;16.29;100105.55;109775;1283;22264;-61
2023/10/08 12:35:00;;;;;;;0.30;0.20;;;;;;;22.72;16.68;100118.17;109684;1280;99251;-60
2023/10/08 12:37:38;;;;;;;0.30;0.20;;;;;;;21.08;17.25;100126.23;109823;1279;22295;-62
2023/10/08 12:40:42;;;;;;;1.20;0.30;;;;;;;19.54;17.58;100126.13;109755;1279;99722;-62
2023/10/08 12:43:28;;;;;;;1.80;0.30;;;;;;;17.86;17.89;100132.74;109867;1279;22271;-60
2023/10/08 12:46:01;;;;;;;0.10;0.10;;;;;;;16.73;18.18;100129.79;109646;1280;98847;-56
2023/10/08 12:48:33;;;;;;;0.20;0.20;;;;;;;15.85;18.50;100129.27;109831;1280;22306;-63
2023/10/08 12:51:06;;;;;;;1.10;0.10;;;;;;;15.07;19.11;100131.00;109704;1283;99590;-62
2023/10/08 12:53:59;;;;;;;0.40;0.20;;;;;;;14.41;19.49;100140.79;109709;1282;22193;-63
2023/10/08 12:56:35;;;;;;;0.70;0.40;;;;;;;13.87;20.07;100142.38;109878;1279;22288;-61
2023/10/08 12:59:25;;;;;;;0.80;0.10;;;;;;;13.53;20.24;100142.95;109715;1282;22238;-60
2023/10/08 13:02:07;;;;;;;0.60;0.20;;;;;;;13.19;20.95;100142.58;109726;1280;24228;-61
2023/10/08 13:04:41;;;;;;;0.70;0.30;;;;;;;12.89;21.23;100144.48;109758;1280;99044;-62
2023/10/08 13:07:21;;;;;;;0.30;0.20;;;;;;;12.60;21.20;100144.29;109832;1279;22308;-62
2023/10/08 13:09:57;;;;;;;1.50;0.10;;;;;;;12.25;21.63;100148.95;109696;1280;99737;-62
2023/10/08 13:12:31;;;;;;;0.50;0.20;;;;;;;11.90;21.78;100158.62;109790;1282;23546;-62
2023/10/08 13:15:08;;;;;;;0.20;0.10;;;;;;;11.56;22.09;100161.34;109746;1279;99913;-62
2023/10/08 13:17:42;;;;;;;1.40;0.50;;;;;;;11.29;22.60;100163.72;109706;1279;22323;-62
2023/10/08 13:20:17;;;;;;;0.20;0.20;;;;;;;11.08;23.46;100171.44;109581;1280;23423;-61